Aurora, NE

8:43 AM CDT on July 20, 2017 (GMT -0500)
Aurora Municipal

Weather History for KAUH - April, 2013

Change the Weather History Date:

Wednesday, April 17, 2013

  Actual Average Record
Temperature  
Mean Temperature 38 °F -  
Max Temperature 43 °F 64 °F 89 °F (1964)
Min Temperature 33 °F 38 °F 23 °F (1990)
Degree Days  
Heating Degree Days 26    
Moisture  
Dew Point 36 °F    
Average Humidity 93    
Maximum Humidity 100    
Minimum Humidity 65    
Precipitation  
Precipitation 0.19 in - - ()
Sea Level Pressure  
Sea Level Pressure 29.95 in    
Wind  
Wind Speed 17 mph (NNE)    
Max Wind Speed 34 mph    
Max Gust Speed 46 mph    
Visibility 6 miles    
Events Rain , Thunderstorm    
Averages and records for this station are not official NWS values.
T = Trace of Precipitation, MM = Missing Value Source: NWS Daily Summary

Daily Weather History Graph

Daily Weather History Graph

Search for Another Location

Airport or City:

Trip Planner

Search our weather history database for the weather conditions in past years. The results will help you decide how hot, cold, wet, or windy it might be!

Date:

Astronomy

Apr. 17, 2013 Rise Set
Actual Time 6:49 AM CDT 8:14 PM CDT
Civil Twilight 6:20 AM CDT 8:42 PM CDT
Nautical Twilight 5:46 AM CDT 9:17 PM CDT
Astronomical Twilight 5:10 AM CDT 9:53 PM CDT
Moon 12:03 PM CDT (4/17) 1:53 AM CDT (4/17)
Length of Visible Light 14h 21m
Length of Day
13h 24m
Waxing Crescent, 42% of the Moon is Illuminated
Apr 17
Waxing Crescent
Apr 18
First Quarter
Apr 25
Full
May 2
Last Quarter
May 9
New

Hourly Weather History & Observations

Time (CDT) Temp. Windchill Dew Point Humidity Pressure Visibility Wind Dir Wind Speed Gust Speed Precip Events Conditions
12:15 AM 44.1 °F 37.4 °F 33.1 °F 65% 30.12 in 10.0 mi East 13.8 mph - N/A   Overcast
12:35 AM 43.9 °F 37.2 °F 33.3 °F 66% 30.11 in 10.0 mi East 13.8 mph - N/A   Overcast
12:55 AM 43.7 °F 37.7 °F 33.8 °F 68% 30.11 in 10.0 mi ENE 11.5 mph - N/A   Overcast
1:15 AM 43.2 °F 36.6 °F 34.3 °F 71% 30.08 in 10.0 mi ENE 12.7 mph - N/A   Overcast
1:35 AM 43.0 °F 36.4 °F 34.7 °F 73% 30.08 in 10.0 mi ENE 12.7 mph - N/A   Overcast
1:55 AM 43.0 °F 36.8 °F 34.9 °F 73% 30.08 in 10.0 mi ENE 11.5 mph - N/A   Overcast
2:15 AM 42.8 °F 37.5 °F 34.9 °F 74% 30.10 in 10.0 mi ENE 9.2 mph - N/A   Overcast
2:35 AM 42.8 °F 37.0 °F 35.2 °F 75% 30.07 in 10.0 mi NE 10.4 mph - N/A   Overcast
2:55 AM 42.6 °F 36.8 °F 35.1 °F 75% 30.06 in 10.0 mi NE 10.4 mph - N/A   Overcast
3:15 AM 42.4 °F 35.3 °F 35.6 °F 77% 30.03 in 10.0 mi NE 13.8 mph - N/A   Overcast
3:35 AM 42.3 °F 35.5 °F 35.2 °F 76% 30.03 in 10.0 mi NE 12.7 mph - N/A   Overcast
3:55 AM 42.3 °F 34.4 °F 35.2 °F 76% 30.01 in 10.0 mi ENE 16.1 mph - N/A   Overcast
4:15 AM 42.1 °F 33.3 °F 35.2 °F 77% 29.99 in 10.0 mi ENE 19.6 mph 26.5 mph N/A Thunderstorm Overcast
4:35 AM 41.9 °F 35.4 °F 36.7 °F 82% 30.11 in 7.0 mi ESE 11.5 mph 23.0 mph 0.02 in Rain , Thunderstorm Thunderstorms and Rain
4:55 AM 38.5 °F 29.2 °F 35.4 °F 89% 29.99 in 4.0 mi NE 17.3 mph - 0.12 in Rain , Thunderstorm Thunderstorms and Rain
5:15 AM 38.1 °F 30.2 °F 36.1 °F 93% 30.00 in 10.0 mi NE 12.7 mph - 0.02 in Rain , Thunderstorm Light Thunderstorms and Rain
5:35 AM 37.9 °F 30.5 °F 36.7 °F 95% 30.01 in 5.0 mi NNE 11.5 mph - 0.04 in Rain Light Rain
5:55 AM 36.5 °F 26.7 °F 35.6 °F 97% 29.99 in 7.0 mi North 17.3 mph - 0.05 in Thunderstorm Unknown
6:15 AM 36.1 °F 28.2 °F 35.8 °F 99% 30.01 in 10.0 mi NNE 11.5 mph 21.9 mph N/A Rain Light Rain
6:35 AM 36.1 °F 31.4 °F 36.0 °F 99% 30.04 in 10.0 mi NNE 5.8 mph 15.0 mph 0.01 in   Overcast
6:55 AM 36.1 °F 28.2 °F 36.1 °F 100% 30.03 in 7.0 mi North 11.5 mph - 0.02 in Rain Light Rain
7:15 AM 36.0 °F 25.6 °F 36.0 °F 100% 30.00 in 7.0 mi NE 18.4 mph - N/A   Overcast
7:35 AM 35.8 °F 24.8 °F 35.8 °F 100% 29.98 in 4.0 mi NNE 20.7 mph 25.3 mph N/A Rain Light Rain
7:55 AM 35.6 °F 24.8 °F 35.6 °F 100% 29.98 in 4.0 mi NNE 19.6 mph 25.3 mph N/A   Overcast
8:15 AM 35.6 °F 26.2 °F 35.6 °F 100% 30.01 in 10.0 mi NNE 15.0 mph 20.7 mph N/A   Overcast
8:35 AM 35.6 °F 25.5 °F 35.6 °F 100% 30.00 in 10.0 mi NNE 17.3 mph - N/A   Overcast
9:15 AM 35.8 °F 25.1 °F 35.8 °F 100% 29.99 in 1.8 mi NNE 19.6 mph 24.2 mph N/A   Overcast
9:35 AM 36.0 °F 26.7 °F 36.0 °F 100% 29.99 in 1.8 mi North 15.0 mph 20.7 mph N/A   Overcast
9:55 AM 36.0 °F 25.3 °F 36.0 °F 100% 29.98 in 1.8 mi NNE 19.6 mph - N/A   Overcast
10:15 AM 36.3 °F 25.8 °F 36.3 °F 100% 29.97 in 2.5 mi NNE 19.6 mph 26.5 mph N/A   Overcast
10:35 AM 36.3 °F 25.2 °F 36.3 °F 100% 29.98 in 2.5 mi NNE 21.9 mph 27.6 mph N/A   Overcast
10:55 AM 36.5 °F 26.7 °F 36.5 °F 100% 29.96 in 2.0 mi NNE 17.3 mph 26.5 mph N/A   Overcast
11:15 AM 36.7 °F 26.0 °F 36.7 °F 100% 29.96 in 1.5 mi NNE 20.7 mph 24.2 mph N/A   Overcast
11:35 AM 36.9 °F 26.5 °F 36.9 °F 100% 29.96 in 2.0 mi NNE 19.6 mph 23.0 mph N/A   Overcast
11:55 AM 37.0 °F 26.2 °F 37.0 °F 100% 29.93 in 1.8 mi NNE 21.9 mph - N/A   Overcast
12:15 PM 37.0 °F 26.7 °F 37.0 °F 100% 29.94 in 1.5 mi NNE 19.6 mph - N/A   Overcast
12:35 PM 37.6 °F 27.1 °F 37.6 °F 100% 29.92 in 1.5 mi North 20.7 mph 25.3 mph N/A   Overcast
12:55 PM 37.9 °F 28.2 °F 37.9 °F 100% 29.94 in 2.5 mi NNE 18.4 mph - N/A   Overcast
1:15 PM 37.8 °F 27.4 °F 37.8 °F 100% 29.91 in 4.0 mi NNE 20.7 mph - N/A   Overcast
1:35 PM 37.9 °F 28.2 °F 37.9 °F 100% 29.90 in 4.0 mi NNE 18.4 mph 21.9 mph N/A   Overcast
1:55 PM 37.8 °F 27.7 °F 37.8 °F 100% 29.91 in 3.0 mi NNE 19.6 mph - N/A   Overcast
2:15 PM 38.3 °F 28.7 °F 38.3 °F 100% 29.89 in 3.0 mi NNE 18.4 mph - N/A   Overcast
2:35 PM 38.7 °F 28.8 °F 38.7 °F 100% 29.88 in 2.5 mi North 19.6 mph 27.6 mph N/A   Overcast
2:55 PM 38.7 °F 28.3 °F 38.7 °F 100% 29.86 in 2.5 mi NNE 21.9 mph 25.3 mph N/A   Overcast
3:35 PM 38.7 °F 29.1 °F 38.7 °F 100% 29.87 in 2.5 mi NNE 18.4 mph 25.3 mph N/A   Overcast
3:55 PM 39.0 °F 29.3 °F 39.0 °F 100% 29.85 in 2.0 mi North 19.6 mph 25.3 mph N/A   Overcast
4:15 PM 38.8 °F 29.4 °F 38.8 °F 100% 29.86 in 2.0 mi NNE 18.4 mph - N/A   Overcast
4:35 PM 38.5 °F 29.6 °F 38.5 °F 100% 29.88 in 2.5 mi North 16.1 mph 23.0 mph N/A   Overcast
4:55 PM 38.7 °F 32.4 °F 38.7 °F 100% 29.93 in 4.0 mi NNE 9.2 mph - N/A Thunderstorm Overcast
5:15 PM 38.5 °F 28.1 °F 38.5 °F 100% 29.87 in 3.0 mi North 21.9 mph 26.5 mph N/A Thunderstorm Overcast
5:35 PM 38.3 °F 26.6 °F 38.3 °F 100% 29.83 in 2.0 mi North 27.6 mph 33.4 mph N/A   Overcast
5:55 PM 38.3 °F 28.1 °F 38.3 °F 100% 29.83 in 2.5 mi North 20.7 mph 27.6 mph N/A   Overcast
6:15 PM 38.5 °F 27.1 °F 38.5 °F 100% 29.83 in 5.0 mi North 26.5 mph 32.2 mph N/A   Overcast
6:35 PM 38.3 °F 26.8 °F 38.1 °F 99% 29.84 in 10.0 mi North 26.5 mph 35.7 mph N/A   Overcast
6:55 PM 38.3 °F 27.6 °F 37.6 °F 97% 29.85 in 10.0 mi North 23.0 mph 31.1 mph N/A   Overcast
7:15 PM 37.9 °F 27.1 °F 37.0 °F 97% 29.87 in 10.0 mi North 23.0 mph 29.9 mph N/A   Overcast
7:35 PM 37.9 °F 27.1 °F 36.5 °F 95% 29.88 in 10.0 mi North 23.0 mph 32.2 mph N/A   Overcast
7:55 PM 37.9 °F 27.9 °F 36.5 °F 95% 29.91 in 10.0 mi North 19.6 mph 24.2 mph N/A   Overcast
8:15 PM 37.4 °F 25.9 °F 35.4 °F 93% 29.89 in 10.0 mi North 25.3 mph 34.5 mph N/A   Overcast
8:35 PM 36.5 °F 24.4 °F 34.9 °F 94% 29.90 in 10.0 mi North 26.5 mph 31.1 mph N/A   Overcast
8:55 PM 36.3 °F 24.7 °F 34.7 °F 94% 29.90 in 10.0 mi North 24.2 mph 31.1 mph N/A   Overcast
9:15 PM 36.0 °F 24.4 °F 34.7 °F 95% 29.90 in 5.0 mi North 23.0 mph 33.4 mph N/A   Overcast
9:55 PM 35.6 °F 23.7 °F 34.7 °F 97% 29.89 in 4.0 mi North 24.2 mph 39.1 mph N/A Rain Light Rain
10:15 PM 35.1 °F 23.0 °F 34.2 °F 97% 29.90 in 10.0 mi North 24.2 mph 39.1 mph N/A   Overcast
10:35 PM 34.9 °F 22.0 °F 34.0 °F 97% 29.92 in 10.0 mi North 27.6 mph 36.8 mph N/A   Overcast
10:55 PM 34.5 °F 22.0 °F 33.8 °F 97% 29.90 in 7.0 mi North 25.3 mph 38.0 mph N/A   Overcast
11:15 PM 34.0 °F 19.5 °F 33.1 °F 96% 29.86 in 7.0 mi North 34.5 mph 43.7 mph N/A   Overcast
11:35 PM 33.8 °F 19.6 °F 32.9 °F 96% 29.85 in 10.0 mi North 32.2 mph 40.3 mph N/A   Overcast
11:55 PM 33.8 °F 19.6 °F 32.0 °F 93% 29.85 in 10.0 mi North 32.2 mph 46.0 mph N/A   Overcast